<?xml version="1.0" encoding="UTF-8"?><gpx creator="Wikiloc - http://www.wikiloc.com" version="1.1" xmlns="http://www.topografix.com/GPX/1/1" xmlns:xsi="http://www.w3.org/2001/XMLSchema-instance" xsi:schemaLocation="http://www.topografix.com/GPX/1/1 http://www.topografix.com/GPX/1/1/gpx.xsd"><wpt lat="39.132690" lon="-6.844880"><ele>256.0</ele><time>2009-09-12T05:20:50Z</time><name>Centro Interpretación</name><cmt></cmt><desc></desc></wpt><wpt lat="39.143510" lon="-6.834730"><ele>327.1</ele><time>2009-09-12T05:20:50Z</time><name>Panel Info y MIRADOR</name><cmt></cmt><desc></desc></wpt><wpt lat="39.134810" lon="-6.844580"><ele>250.5</ele><time>2009-09-12T05:20:50Z</time><name>Panel de Inicio</name><cmt></cmt><desc></desc></wpt><wpt lat="39.148300" lon="-6.773500"><ele>288.0</ele><time>2009-09-12T05:20:50Z</time><name>Final de Ruta</name><cmt></cmt><desc></desc></wpt><wpt lat="39.143320" lon="-6.835880"><ele>321.0</ele><time>2009-09-12T05:20:50Z</time><name>Inicio Cuesta Bermeja</name><cmt></cmt><desc></desc></wpt><wpt lat="39.147000" lon="-6.824120"><ele>309.4</ele><time>2009-09-12T05:20:50Z</time><name>Panel Info y MIRADOR</name><cmt></cmt><desc></desc></wpt><wpt lat="39.148080" lon="-6.814480"><ele>320.6</ele><time>2009-09-12T05:20:50Z</time><name>Refugio de los Pastores</name><cmt></cmt><desc></desc></wpt><wpt lat="39.147390" lon="-6.814540"><ele>325.5</ele><time>2009-09-12T05:20:50Z</time><name>Pozo Ladrian</name><cmt></cmt><desc></desc></wpt><trk><name>PR-BA 130 'Cañada Real Sancha Brava' (Villar del rey) </name><cmt></cmt><desc></desc><trkseg><trkpt lat="39.134800" lon="-6.844650"><ele>238.0</ele><time>2008-11-14T13:11:45Z</time></trkpt><trkpt lat="39.134830" lon="-6.844630"><ele>239.9</ele><time>2008-11-14T13:12:09Z</time></trkpt><trkpt lat="39.134850" lon="-6.844630"><ele>244.8</ele><time>2008-11-14T13:13:20Z</time></trkpt><trkpt lat="39.134850" lon="-6.844640"><ele>248.7</ele><time>2008-11-14T13:14:15Z</time></trkpt><trkpt lat="39.135020" lon="-6.844510"><ele>252.1</ele><time>2008-11-14T13:14:24Z</time></trkpt><trkpt lat="39.135250" lon="-6.844270"><ele>253.6</ele><time>2008-11-14T13:14:32Z</time></trkpt><trkpt lat="39.135440" lon="-6.844160"><ele>253.9</ele><time>2008-11-14T13:14:37Z</time></trkpt><trkpt lat="39.135580" lon="-6.844030"><ele>254.8</ele><time>2008-11-14T13:14:41Z</time></trkpt><trkpt lat="39.135910" lon="-6.843770"><ele>255.7</ele><time>2008-11-14T13:14:50Z</time></trkpt><trkpt lat="39.136010" lon="-6.843690"><ele>256.3</ele><time>2008-11-14T13:14:53Z</time></trkpt><trkpt lat="39.136250" lon="-6.843470"><ele>258.2</ele><time>2008-11-14T13:15:00Z</time></trkpt><trkpt lat="39.136290" lon="-6.843430"><ele>258.2</ele><time>2008-11-14T13:15:01Z</time></trkpt><trkpt lat="39.136600" lon="-6.843120"><ele>257.3</ele><time>2008-11-14T13:15:11Z</time></trkpt><trkpt lat="39.136720" lon="-6.842990"><ele>256.9</ele><time>2008-11-14T13:15:15Z</time></trkpt><trkpt lat="39.136840" lon="-6.842860"><ele>257.3</ele><time>2008-11-14T13:15:19Z</time></trkpt><trkpt lat="39.137010" lon="-6.842710"><ele>259.7</ele><time>2008-11-14T13:15:25Z</time></trkpt><trkpt lat="39.137330" lon="-6.842500"><ele>262.4</ele><time>2008-11-14T13:15:38Z</time></trkpt><trkpt lat="39.137540" lon="-6.842330"><ele>266.1</ele><time>2008-11-14T13:15:48Z</time></trkpt><trkpt lat="39.137890" lon="-6.842060"><ele>267.0</ele><time>2008-11-14T13:15:59Z</time></trkpt><trkpt lat="39.138170" lon="-6.841770"><ele>267.0</ele><time>2008-11-14T13:16:08Z</time></trkpt><trkpt lat="39.138240" lon="-6.841690"><ele>267.0</ele><time>2008-11-14T13:16:10Z</time></trkpt><trkpt lat="39.138370" lon="-6.841560"><ele>267.9</ele><time>2008-11-14T13:16:14Z</time></trkpt><trkpt lat="39.138440" lon="-6.841500"><ele>267.9</ele><time>2008-11-14T13:16:16Z</time></trkpt><trkpt lat="39.138780" lon="-6.841360"><ele>269.4</ele><time>2008-11-14T13:16:27Z</time></trkpt><trkpt lat="39.138990" lon="-6.841270"><ele>270.4</ele><time>2008-11-14T13:16:36Z</time></trkpt><trkpt lat="39.139030" lon="-6.841260"><ele>272.8</ele><time>2008-11-14T13:16:52Z</time></trkpt><trkpt lat="39.139030" lon="-6.841250"><ele>271.6</ele><time>2008-11-14T13:16:58Z</time></trkpt><trkpt lat="39.139120" lon="-6.841220"><ele>272.2</ele><time>2008-11-14T13:17:02Z</time></trkpt><trkpt lat="39.139250" lon="-6.841130"><ele>272.8</ele><time>2008-11-14T13:17:06Z</time></trkpt><trkpt lat="39.139320" lon="-6.841070"><ele>272.8</ele><time>2008-11-14T13:17:08Z</time></trkpt><trkpt lat="39.139440" lon="-6.840850"><ele>274.6</ele><time>2008-11-14T13:17:13Z</time></trkpt><trkpt lat="39.139640" lon="-6.840330"><ele>275.5</ele><time>2008-11-14T13:17:27Z</time></trkpt><trkpt lat="39.139700" lon="-6.839950"><ele>273.7</ele><time>2008-11-14T13:17:38Z</time></trkpt><trkpt lat="39.139720" lon="-6.839880"><ele>273.1</ele><time>2008-11-14T13:17:42Z</time></trkpt><trkpt lat="39.139760" lon="-6.839890"><ele>272.8</ele><time>2008-11-14T13:17:55Z</time></trkpt><trkpt lat="39.139750" lon="-6.839870"><ele>272.8</ele><time>2008-11-14T13:18:00Z</time></trkpt><trkpt lat="39.139810" lon="-6.839720"><ele>272.8</ele><time>2008-11-14T13:18:09Z</time></trkpt><trkpt lat="39.139820" lon="-6.839720"><ele>274.0</ele><time>2008-11-14T13:18:28Z</time></trkpt><trkpt lat="39.139910" lon="-6.839620"><ele>274.0</ele><time>2008-11-14T13:18:33Z</time></trkpt><trkpt lat="39.139960" lon="-6.839550"><ele>274.0</ele><time>2008-11-14T13:18:35Z</time></trkpt><trkpt lat="39.140080" lon="-6.839390"><ele>273.7</ele><time>2008-11-14T13:18:40Z</time></trkpt><trkpt lat="39.140150" lon="-6.839330"><ele>271.6</ele><time>2008-11-14T13:18:48Z</time></trkpt><trkpt lat="39.140320" lon="-6.839130"><ele>273.7</ele><time>2008-11-14T13:19:27Z</time></trkpt><trkpt lat="39.140330" lon="-6.839090"><ele>273.7</ele><time>2008-11-14T13:19:28Z</time></trkpt><trkpt lat="39.140380" lon="-6.838890"><ele>274.0</ele><time>2008-11-14T13:19:32Z</time></trkpt><trkpt lat="39.140410" lon="-6.838400"><ele>274.6</ele><time>2008-11-14T13:19:42Z</time></trkpt><trkpt lat="39.140570" lon="-6.837950"><ele>277.4</ele><time>2008-11-14T13:19:52Z</time></trkpt><trkpt lat="39.140830" lon="-6.837670"><ele>281.9</ele><time>2008-11-14T13:20:02Z</time></trkpt><trkpt lat="39.141000" lon="-6.837530"><ele>284.1</ele><time>2008-11-14T13:20:09Z</time></trkpt><trkpt lat="39.141150" lon="-6.837380"><ele>284.7</ele><time>2008-11-14T13:20:18Z</time></trkpt><trkpt lat="39.141180" lon="-6.837360"><ele>285.3</ele><time>2008-11-14T13:20:20Z</time></trkpt><trkpt lat="39.141270" lon="-6.837320"><ele>286.2</ele><time>2008-11-14T13:20:24Z</time></trkpt><trkpt lat="39.141380" lon="-6.837250"><ele>290.5</ele><time>2008-11-14T13:20:29Z</time></trkpt><trkpt lat="39.141490" lon="-6.837200"><ele>294.7</ele><time>2008-11-14T13:20:35Z</time></trkpt><trkpt lat="39.141700" lon="-6.837000"><ele>295.7</ele><time>2008-11-14T13:20:46Z</time></trkpt><trkpt lat="39.141770" lon="-6.836910"><ele>295.4</ele><time>2008-11-14T13:20:50Z</time></trkpt><trkpt lat="39.141890" lon="-6.836760"><ele>293.8</ele><time>2008-11-14T13:20:58Z</time></trkpt><trkpt lat="39.141930" lon="-6.836730"><ele>295.4</ele><time>2008-11-14T13:21:00Z</time></trkpt><trkpt lat="39.142120" lon="-6.836650"><ele>299.0</ele><time>2008-11-14T13:21:10Z</time></trkpt><trkpt lat="39.142370" lon="-6.836510"><ele>302.1</ele><time>2008-11-14T13:21:24Z</time></trkpt><trkpt lat="39.142460" lon="-6.836450"><ele>303.6</ele><time>2008-11-14T13:21:29Z</time></trkpt><trkpt lat="39.142600" lon="-6.836370"><ele>304.5</ele><time>2008-11-14T13:21:37Z</time></trkpt><trkpt lat="39.142740" lon="-6.836300"><ele>305.7</ele><time>2008-11-14T13:21:45Z</time></trkpt><trkpt lat="39.142800" lon="-6.836280"><ele>307.2</ele><time>2008-11-14T13:21:48Z</time></trkpt><trkpt lat="39.142870" lon="-6.836260"><ele>309.7</ele><time>2008-11-14T13:21:52Z</time></trkpt><trkpt lat="39.143020" lon="-6.836150"><ele>313.0</ele><time>2008-11-14T13:22:03Z</time></trkpt><trkpt lat="39.143210" lon="-6.836090"><ele>319.4</ele><time>2008-11-14T13:22:15Z</time></trkpt><trkpt lat="39.143320" lon="-6.835980"><ele>324.6</ele><time>2008-11-14T13:22:23Z</time></trkpt><trkpt lat="39.143320" lon="-6.835910"><ele>326.1</ele><time>2008-11-14T13:22:28Z</time></trkpt><trkpt lat="39.143320" lon="-6.835890"><ele>320.6</ele><time>2008-11-14T13:22:51Z</time></trkpt><trkpt lat="39.143330" lon="-6.835870"><ele>316.4</ele><time>2008-11-14T13:23:33Z</time></trkpt><trkpt lat="39.143310" lon="-6.835670"><ele>314.9</ele><time>2008-11-14T13:23:43Z</time></trkpt><trkpt lat="39.143240" lon="-6.835430"><ele>317.9</ele><time>2008-11-14T13:23:53Z</time></trkpt><trkpt lat="39.143240" lon="-6.835320"><ele>317.3</ele><time>2008-11-14T13:23:57Z</time></trkpt><trkpt lat="39.143280" lon="-6.835050"><ele>317.0</ele><time>2008-11-14T13:24:08Z</time></trkpt><trkpt lat="39.143320" lon="-6.834800"><ele>318.8</ele><time>2008-11-14T13:24:18Z</time></trkpt><trkpt lat="39.143330" lon="-6.834770"><ele>318.8</ele><time>2008-11-14T13:24:19Z</time></trkpt><trkpt lat="39.143360" lon="-6.834690"><ele>320.6</ele><time>2008-11-14T13:24:23Z</time></trkpt><trkpt lat="39.143480" lon="-6.834680"><ele>323.7</ele><time>2008-11-14T13:24:32Z</time></trkpt><trkpt lat="39.143540" lon="-6.834720"><ele>325.5</ele><time>2008-11-14T13:24:40Z</time></trkpt><trkpt lat="39.143510" lon="-6.834730"><ele>326.4</ele><time>2008-11-14T13:25:06Z</time></trkpt><trkpt lat="39.143510" lon="-6.834730"><ele>327.1</ele><time>2008-11-14T13:25:23Z</time></trkpt><trkpt lat="39.143500" lon="-6.834750"><ele>326.4</ele><time>2008-11-14T13:26:00Z</time></trkpt><trkpt lat="39.143500" lon="-6.834740"><ele>326.4</ele><time>2008-11-14T13:26:22Z</time></trkpt><trkpt lat="39.143560" lon="-6.834730"><ele>326.1</ele><time>2008-11-14T13:26:46Z</time></trkpt><trkpt lat="39.143580" lon="-6.834730"><ele>325.5</ele><time>2008-11-14T13:27:00Z</time></trkpt><trkpt lat="39.143550" lon="-6.834790"><ele>327.1</ele><time>2008-11-14T13:27:43Z</time></trkpt><trkpt lat="39.143550" lon="-6.834760"><ele>326.4</ele><time>2008-11-14T13:27:59Z</time></trkpt><trkpt lat="39.143550" lon="-6.834730"><ele>327.1</ele><time>2008-11-14T13:28:16Z</time></trkpt><trkpt lat="39.143550" lon="-6.834730"><ele>327.1</ele><time>2008-11-14T13:28:21Z</time></trkpt><trkpt lat="39.143450" lon="-6.834470"><ele>326.4</ele><time>2008-11-14T13:28:30Z</time></trkpt><trkpt lat="39.143470" lon="-6.834430"><ele>326.4</ele><time>2008-11-14T13:28:31Z</time></trkpt><trkpt lat="39.143660" lon="-6.834040"><ele>328.0</ele><time>2008-11-14T13:28:42Z</time></trkpt><trkpt lat="39.143800" lon="-6.833460"><ele>328.0</ele><time>2008-11-14T13:28:55Z</time></trkpt><trkpt lat="39.143830" lon="-6.832940"><ele>327.1</ele><time>2008-11-14T13:29:07Z</time></trkpt><trkpt lat="39.143840" lon="-6.832740"><ele>326.1</ele><time>2008-11-14T13:29:11Z</time></trkpt><trkpt lat="39.143980" lon="-6.832180"><ele>324.6</ele><time>2008-11-14T13:29:21Z</time></trkpt><trkpt lat="39.144260" lon="-6.831800"><ele>326.1</ele><time>2008-11-14T13:29:30Z</time></trkpt><trkpt lat="39.144250" lon="-6.831290"><ele>324.6</ele><time>2008-11-14T13:29:41Z</time></trkpt><trkpt lat="39.144170" lon="-6.830890"><ele>324.0</ele><time>2008-11-14T13:29:46Z</time></trkpt><trkpt lat="39.144150" lon="-6.830750"><ele>323.7</ele><time>2008-11-14T13:29:48Z</time></trkpt><trkpt lat="39.144140" lon="-6.830200"><ele>321.6</ele><time>2008-11-14T13:29:57Z</time></trkpt><trkpt lat="39.144200" lon="-6.829780"><ele>320.3</ele><time>2008-11-14T13:30:03Z</time></trkpt><trkpt lat="39.144240" lon="-6.829320"><ele>319.4</ele><time>2008-11-14T13:30:08Z</time></trkpt><trkpt lat="39.144280" lon="-6.829070"><ele>318.2</ele><time>2008-11-14T13:30:11Z</time></trkpt><trkpt lat="39.144330" lon="-6.828860"><ele>318.2</ele><time>2008-11-14T13:30:14Z</time></trkpt><trkpt lat="39.144380" lon="-6.828720"><ele>319.4</ele><time>2008-11-14T13:30:17Z</time></trkpt><trkpt lat="39.144490" lon="-6.828470"><ele>320.6</ele><time>2008-11-14T13:30:21Z</time></trkpt><trkpt lat="39.144560" lon="-6.828230"><ele>321.6</ele><time>2008-11-14T13:30:29Z</time></trkpt><trkpt lat="39.144560" lon="-6.828160"><ele>321.6</ele><time>2008-11-14T13:30:56Z</time></trkpt><trkpt lat="39.144590" lon="-6.828090"><ele>321.6</ele><time>2008-11-14T13:31:01Z</time></trkpt><trkpt lat="39.144610" lon="-6.828090"><ele>321.6</ele><time>2008-11-14T13:31:20Z</time></trkpt><trkpt lat="39.144630" lon="-6.828060"><ele>322.2</ele><time>2008-11-14T13:33:02Z</time></trkpt><trkpt lat="39.144630" lon="-6.828070"><ele>322.2</ele><time>2008-11-14T13:33:10Z</time></trkpt><trkpt lat="39.144670" lon="-6.827980"><ele>321.3</ele><time>2008-11-14T13:33:15Z</time></trkpt><trkpt lat="39.144710" lon="-6.827920"><ele>320.3</ele><time>2008-11-14T13:33:17Z</time></trkpt><trkpt lat="39.144750" lon="-6.827910"><ele>320.3</ele><time>2008-11-14T13:33:29Z</time></trkpt><trkpt lat="39.144780" lon="-6.827900"><ele>322.8</ele><time>2008-11-14T13:34:19Z</time></trkpt><trkpt lat="39.144800" lon="-6.827900"><ele>322.2</ele><time>2008-11-14T13:34:25Z</time></trkpt><trkpt lat="39.144810" lon="-6.827880"><ele>322.2</ele><time>2008-11-14T13:34:28Z</time></trkpt><trkpt lat="39.144840" lon="-6.827830"><ele>321.6</ele><time>2008-11-14T13:34:33Z</time></trkpt><trkpt lat="39.144930" lon="-6.827660"><ele>321.3</ele><time>2008-11-14T13:34:43Z</time></trkpt><trkpt lat="39.144970" lon="-6.827190"><ele>321.6</ele><time>2008-11-14T13:34:55Z</time></trkpt><trkpt lat="39.144970" lon="-6.827170"><ele>321.6</ele><time>2008-11-14T13:34:56Z</time></trkpt><trkpt lat="39.144960" lon="-6.827090"><ele>323.1</ele><time>2008-11-14T13:35:00Z</time></trkpt><trkpt lat="39.144950" lon="-6.827080"><ele>323.7</ele><time>2008-11-14T13:35:02Z</time></trkpt><trkpt lat="39.144980" lon="-6.827090"><ele>324.0</ele><time>2008-11-14T13:35:06Z</time></trkpt><trkpt lat="39.145030" lon="-6.826980"><ele>323.7</ele><time>2008-11-14T13:35:10Z</time></trkpt><trkpt lat="39.145110" lon="-6.826820"><ele>323.1</ele><time>2008-11-14T13:35:13Z</time></trkpt><trkpt lat="39.145160" lon="-6.826710"><ele>323.1</ele><time>2008-11-14T13:35:15Z</time></trkpt><trkpt lat="39.145210" lon="-6.826510"><ele>323.7</ele><time>2008-11-14T13:35:18Z</time></trkpt><trkpt lat="39.145250" lon="-6.826290"><ele>323.1</ele><time>2008-11-14T13:35:21Z</time></trkpt><trkpt lat="39.145500" lon="-6.825780"><ele>319.4</ele><time>2008-11-14T13:35:28Z</time></trkpt><trkpt lat="39.146330" lon="-6.825230"><ele>314.9</ele><time>2008-11-14T13:35:40Z</time></trkpt><trkpt lat="39.146490" lon="-6.825100"><ele>313.6</ele><time>2008-11-14T13:35:42Z</time></trkpt><trkpt lat="39.146720" lon="-6.824770"><ele>311.5</ele><time>2008-11-14T13:35:47Z</time></trkpt><trkpt lat="39.146830" lon="-6.824600"><ele>311.5</ele><time>2008-11-14T13:35:50Z</time></trkpt><trkpt lat="39.146920" lon="-6.824290"><ele>311.2</ele><time>2008-11-14T13:35:54Z</time></trkpt><trkpt lat="39.147000" lon="-6.824130"><ele>310.3</ele><time>2008-11-14T13:35:59Z</time></trkpt><trkpt lat="39.147010" lon="-6.824090"><ele>310.3</ele><time>2008-11-14T13:36:02Z</time></trkpt><trkpt lat="39.146890" lon="-6.824320"><ele>310.6</ele><time>2008-11-14T13:36:10Z</time></trkpt><trkpt lat="39.146860" lon="-6.824450"><ele>308.8</ele><time>2008-11-14T13:36:16Z</time></trkpt><trkpt lat="39.146870" lon="-6.824440"><ele>305.4</ele><time>2008-11-14T13:36:36Z</time></trkpt><trkpt lat="39.146920" lon="-6.824120"><ele>306.3</ele><time>2008-11-14T13:36:46Z</time></trkpt><trkpt lat="39.146960" lon="-6.824070"><ele>307.2</ele><time>2008-11-14T13:36:57Z</time></trkpt><trkpt lat="39.146990" lon="-6.824040"><ele>308.2</ele><time>2008-11-14T13:37:09Z</time></trkpt><trkpt lat="39.147000" lon="-6.824040"><ele>309.7</ele><time>2008-11-14T13:37:14Z</time></trkpt><trkpt lat="39.146990" lon="-6.824070"><ele>309.7</ele><time>2008-11-14T13:37:17Z</time></trkpt><trkpt lat="39.147000" lon="-6.824150"><ele>307.8</ele><time>2008-11-14T13:37:37Z</time></trkpt><trkpt lat="39.146990" lon="-6.824110"><ele>306.9</ele><time>2008-11-14T13:37:49Z</time></trkpt><trkpt lat="39.147000" lon="-6.824080"><ele>306.9</ele><time>2008-11-14T13:37:51Z</time></trkpt><trkpt lat="39.146980" lon="-6.823900"><ele>306.3</ele><time>2008-11-14T13:38:03Z</time></trkpt><trkpt lat="39.146960" lon="-6.823830"><ele>305.7</ele><time>2008-11-14T13:38:07Z</time></trkpt><trkpt lat="39.146940" lon="-6.823770"><ele>305.7</ele><time>2008-11-14T13:38:12Z</time></trkpt><trkpt lat="39.146920" lon="-6.823690"><ele>308.2</ele><time>2008-11-14T13:38:25Z</time></trkpt><trkpt lat="39.146910" lon="-6.823640"><ele>310.6</ele><time>2008-11-14T13:38:47Z</time></trkpt><trkpt lat="39.146910" lon="-6.823630"><ele>310.6</ele><time>2008-11-14T13:38:57Z</time></trkpt><trkpt lat="39.146990" lon="-6.823490"><ele>311.2</ele><time>2008-11-14T13:39:02Z</time></trkpt><trkpt lat="39.147010" lon="-6.823380"><ele>311.2</ele><time>2008-11-14T13:39:04Z</time></trkpt><trkpt lat="39.147030" lon="-6.823270"><ele>311.2</ele><time>2008-11-14T13:39:06Z</time></trkpt><trkpt lat="39.147060" lon="-6.823100"><ele>311.5</ele><time>2008-11-14T13:39:09Z</time></trkpt><trkpt lat="39.147080" lon="-6.822970"><ele>311.5</ele><time>2008-11-14T13:39:11Z</time></trkpt><trkpt lat="39.147120" lon="-6.822740"><ele>312.1</ele><time>2008-11-14T13:39:15Z</time></trkpt><trkpt lat="39.147140" lon="-6.822620"><ele>312.1</ele><time>2008-11-14T13:39:17Z</time></trkpt><trkpt lat="39.147090" lon="-6.821980"><ele>310.6</ele><time>2008-11-14T13:39:26Z</time></trkpt><trkpt lat="39.147070" lon="-6.821780"><ele>310.3</ele><time>2008-11-14T13:39:30Z</time></trkpt><trkpt lat="39.147070" lon="-6.821730"><ele>307.8</ele><time>2008-11-14T13:39:46Z</time></trkpt><trkpt lat="39.147010" lon="-6.821470"><ele>309.1</ele><time>2008-11-14T13:39:53Z</time></trkpt><trkpt lat="39.146910" lon="-6.821220"><ele>307.8</ele><time>2008-11-14T13:39:58Z</time></trkpt><trkpt lat="39.146870" lon="-6.820970"><ele>308.8</ele><time>2008-11-14T13:40:03Z</time></trkpt><trkpt lat="39.146850" lon="-6.820610"><ele>313.0</ele><time>2008-11-14T13:40:10Z</time></trkpt><trkpt lat="39.146830" lon="-6.820390"><ele>314.9</ele><time>2008-11-14T13:40:14Z</time></trkpt><trkpt lat="39.146810" lon="-6.820130"><ele>316.4</ele><time>2008-11-14T13:40:19Z</time></trkpt><trkpt lat="39.146870" lon="-6.819740"><ele>315.5</ele><time>2008-11-14T13:40:25Z</time></trkpt><trkpt lat="39.146880" lon="-6.819630"><ele>315.5</ele><time>2008-11-14T13:40:27Z</time></trkpt><trkpt lat="39.146840" lon="-6.819320"><ele>314.9</ele><time>2008-11-14T13:40:33Z</time></trkpt><trkpt lat="39.146870" lon="-6.819190"><ele>314.6</ele><time>2008-11-14T13:40:39Z</time></trkpt><trkpt lat="39.146930" lon="-6.819160"><ele>313.0</ele><time>2008-11-14T13:40:48Z</time></trkpt><trkpt lat="39.146950" lon="-6.819140"><ele>310.6</ele><time>2008-11-14T13:41:06Z</time></trkpt><trkpt lat="39.147070" lon="-6.819020"><ele>311.5</ele><time>2008-11-14T13:41:16Z</time></trkpt><trkpt lat="39.147100" lon="-6.819010"><ele>311.5</ele><time>2008-11-14T13:41:26Z</time></trkpt><trkpt lat="39.147080" lon="-6.819010"><ele>311.5</ele><time>2008-11-14T13:41:37Z</time></trkpt><trkpt lat="39.147140" lon="-6.818950"><ele>311.5</ele><time>2008-11-14T13:41:50Z</time></trkpt><trkpt lat="39.147170" lon="-6.818930"><ele>311.5</ele><time>2008-11-14T13:41:52Z</time></trkpt><trkpt lat="39.147340" lon="-6.818810"><ele>313.6</ele><time>2008-11-14T13:42:02Z</time></trkpt><trkpt lat="39.147460" lon="-6.818550"><ele>314.6</ele><time>2008-11-14T13:42:08Z</time></trkpt><trkpt lat="39.147540" lon="-6.818280"><ele>314.9</ele><time>2008-11-14T13:42:13Z</time></trkpt><trkpt lat="39.147430" lon="-6.817790"><ele>314.6</ele><time>2008-11-14T13:42:23Z</time></trkpt><trkpt lat="39.147410" lon="-6.817740"><ele>314.6</ele><time>2008-11-14T13:42:24Z</time></trkpt><trkpt lat="39.147430" lon="-6.817550"><ele>314.6</ele><time>2008-11-14T13:42:28Z</time></trkpt><trkpt lat="39.147580" lon="-6.817160"><ele>315.5</ele><time>2008-11-14T13:42:39Z</time></trkpt><trkpt lat="39.147630" lon="-6.817100"><ele>315.5</ele><time>2008-11-14T13:42:41Z</time></trkpt><trkpt lat="39.147720" lon="-6.816910"><ele>315.5</ele><time>2008-11-14T13:42:45Z</time></trkpt><trkpt lat="39.147790" lon="-6.816690"><ele>316.1</ele><time>2008-11-14T13:42:49Z</time></trkpt><trkpt lat="39.147830" lon="-6.816530"><ele>316.4</ele><time>2008-11-14T13:42:52Z</time></trkpt><trkpt lat="39.148140" lon="-6.815980"><ele>317.3</ele><time>2008-11-14T13:43:04Z</time></trkpt><trkpt lat="39.148240" lon="-6.815800"><ele>317.9</ele><time>2008-11-14T13:43:11Z</time></trkpt><trkpt lat="39.148320" lon="-6.815690"><ele>318.2</ele><time>2008-11-14T13:43:19Z</time></trkpt><trkpt lat="39.148270" lon="-6.815550"><ele>317.3</ele><time>2008-11-14T13:43:27Z</time></trkpt><trkpt lat="39.148270" lon="-6.815520"><ele>317.9</ele><time>2008-11-14T13:43:28Z</time></trkpt><trkpt lat="39.148440" lon="-6.815090"><ele>318.8</ele><time>2008-11-14T13:43:39Z</time></trkpt><trkpt lat="39.148460" lon="-6.815000"><ele>318.8</ele><time>2008-11-14T13:43:41Z</time></trkpt><trkpt lat="39.148340" lon="-6.814810"><ele>317.9</ele><time>2008-11-14T13:43:47Z</time></trkpt><trkpt lat="39.148120" lon="-6.814470"><ele>316.4</ele><time>2008-11-14T13:43:58Z</time></trkpt><trkpt lat="39.148120" lon="-6.814460"><ele>317.9</ele><time>2008-11-14T13:44:09Z</time></trkpt><trkpt lat="39.148120" lon="-6.814460"><ele>319.4</ele><time>2008-11-14T13:44:20Z</time></trkpt><trkpt lat="39.148080" lon="-6.814490"><ele>320.6</ele><time>2008-11-14T13:44:37Z</time></trkpt><trkpt lat="39.148090" lon="-6.814490"><ele>319.4</ele><time>2008-11-14T13:45:14Z</time></trkpt><trkpt lat="39.148130" lon="-6.814440"><ele>320.6</ele><time>2008-11-14T13:45:23Z</time></trkpt><trkpt lat="39.148000" lon="-6.814470"><ele>322.2</ele><time>2008-11-14T13:45:30Z</time></trkpt><trkpt lat="39.147950" lon="-6.814520"><ele>322.8</ele><time>2008-11-14T13:45:37Z</time></trkpt><trkpt lat="39.147970" lon="-6.814550"><ele>322.8</ele><time>2008-11-14T13:45:54Z</time></trkpt><trkpt lat="39.147960" lon="-6.814540"><ele>323.1</ele><time>2008-11-14T13:45:56Z</time></trkpt><trkpt lat="39.147950" lon="-6.814510"><ele>322.8</ele><time>2008-11-14T13:46:04Z</time></trkpt><trkpt lat="39.147810" lon="-6.814600"><ele>322.2</ele><time>2008-11-14T13:46:11Z</time></trkpt><trkpt lat="39.147750" lon="-6.814610"><ele>321.6</ele><time>2008-11-14T13:46:13Z</time></trkpt><trkpt lat="39.147730" lon="-6.814610"><ele>322.8</ele><time>2008-11-14T13:46:19Z</time></trkpt><trkpt lat="39.147720" lon="-6.814610"><ele>322.8</ele><time>2008-11-14T13:46:21Z</time></trkpt><trkpt lat="39.147590" lon="-6.814580"><ele>319.7</ele><time>2008-11-14T13:46:32Z</time></trkpt><trkpt lat="39.147550" lon="-6.814600"><ele>319.7</ele><time>2008-11-14T13:46:34Z</time></trkpt><trkpt lat="39.147500" lon="-6.814600"><ele>320.6</ele><time>2008-11-14T13:46:38Z</time></trkpt><trkpt lat="39.147460" lon="-6.814590"><ele>322.8</ele><time>2008-11-14T13:46:41Z</time></trkpt><trkpt lat="39.147370" lon="-6.814530"><ele>325.5</ele><time>2008-11-14T13:46:54Z</time></trkpt><trkpt lat="39.147360" lon="-6.814540"><ele>325.5</ele><time>2008-11-14T13:47:08Z</time></trkpt><trkpt lat="39.147310" lon="-6.814530"><ele>326.1</ele><time>2008-11-14T13:47:19Z</time></trkpt><trkpt lat="39.147320" lon="-6.814540"><ele>326.4</ele><time>2008-11-14T13:47:30Z</time></trkpt><trkpt lat="39.147240" lon="-6.814590"><ele>327.4</ele><time>2008-11-14T13:47:39Z</time></trkpt><trkpt lat="39.147220" lon="-6.814580"><ele>327.1</ele><time>2008-11-14T13:47:47Z</time></trkpt><trkpt lat="39.147230" lon="-6.814580"><ele>326.4</ele><time>2008-11-14T13:47:49Z</time></trkpt><trkpt lat="39.147370" lon="-6.814590"><ele>327.4</ele><time>2008-11-14T13:48:00Z</time></trkpt><trkpt lat="39.147550" lon="-6.814580"><ele>328.0</ele><time>2008-11-14T13:48:12Z</time></trkpt><trkpt lat="39.147610" lon="-6.814560"><ele>328.6</ele><time>2008-11-14T13:48:16Z</time></trkpt><trkpt lat="39.147710" lon="-6.814570"><ele>328.9</ele><time>2008-11-14T13:48:21Z</time></trkpt><trkpt lat="39.147740" lon="-6.814600"><ele>328.0</ele><time>2008-11-14T13:48:28Z</time></trkpt><trkpt lat="39.147760" lon="-6.814600"><ele>327.4</ele><time>2008-11-14T13:48:31Z</time></trkpt><trkpt lat="39.147780" lon="-6.814590"><ele>326.4</ele><time>2008-11-14T13:48:34Z</time></trkpt><trkpt lat="39.147890" lon="-6.814550"><ele>326.1</ele><time>2008-11-14T13:48:47Z</time></trkpt><trkpt lat="39.147890" lon="-6.814550"><ele>326.1</ele><time>2008-11-14T13:48:48Z</time></trkpt><trkpt lat="39.148000" lon="-6.814530"><ele>325.5</ele><time>2008-11-14T13:48:57Z</time></trkpt><trkpt lat="39.148070" lon="-6.814420"><ele>324.0</ele><time>2008-11-14T13:49:50Z</time></trkpt><trkpt lat="39.148220" lon="-6.814570"><ele>324.0</ele><time>2008-11-14T13:49:54Z</time></trkpt><trkpt lat="39.148350" lon="-6.814790"><ele>323.7</ele><time>2008-11-14T13:49:58Z</time></trkpt><trkpt lat="39.148520" lon="-6.814930"><ele>323.1</ele><time>2008-11-14T13:50:02Z</time></trkpt><trkpt lat="39.148610" lon="-6.814970"><ele>322.8</ele><time>2008-11-14T13:50:04Z</time></trkpt><trkpt lat="39.148900" lon="-6.814840"><ele>324.0</ele><time>2008-11-14T13:50:13Z</time></trkpt><trkpt lat="39.148950" lon="-6.814560"><ele>328.9</ele><time>2008-11-14T13:51:02Z</time></trkpt><trkpt lat="39.148990" lon="-6.814410"><ele>329.8</ele><time>2008-11-14T13:51:11Z</time></trkpt><trkpt lat="39.149040" lon="-6.814360"><ele>329.5</ele><time>2008-11-14T13:51:39Z</time></trkpt><trkpt lat="39.149140" lon="-6.814120"><ele>328.6</ele><time>2008-11-14T13:51:45Z</time></trkpt><trkpt lat="39.149400" lon="-6.813650"><ele>328.0</ele><time>2008-11-14T13:51:58Z</time></trkpt><trkpt lat="39.149630" lon="-6.813320"><ele>328.6</ele><time>2008-11-14T13:52:09Z</time></trkpt><trkpt lat="39.149700" lon="-6.813200"><ele>328.0</ele><time>2008-11-14T13:52:13Z</time></trkpt><trkpt lat="39.149930" lon="-6.813040"><ele>328.0</ele><time>2008-11-14T13:52:22Z</time></trkpt><trkpt lat="39.150060" lon="-6.812870"><ele>328.6</ele><time>2008-11-14T13:52:29Z</time></trkpt><trkpt lat="39.150250" lon="-6.812570"><ele>328.9</ele><time>2008-11-14T13:52:41Z</time></trkpt><trkpt lat="39.150320" lon="-6.812450"><ele>329.5</ele><time>2008-11-14T13:52:50Z</time></trkpt><trkpt lat="39.150320" lon="-6.812380"><ele>328.9</ele><time>2008-11-14T13:52:54Z</time></trkpt><trkpt lat="39.150350" lon="-6.812350"><ele>329.5</ele><time>2008-11-14T13:53:03Z</time></trkpt><trkpt lat="39.150200" lon="-6.812070"><ele>329.8</ele><time>2008-11-14T13:53:12Z</time></trkpt><trkpt lat="39.150160" lon="-6.811930"><ele>330.4</ele><time>2008-11-14T13:53:15Z</time></trkpt><trkpt lat="39.150010" lon="-6.811380"><ele>330.7</ele><time>2008-11-14T13:53:26Z</time></trkpt><trkpt lat="39.149950" lon="-6.811180"><ele>331.3</ele><time>2008-11-14T13:53:30Z</time></trkpt><trkpt lat="39.149940" lon="-6.810930"><ele>331.3</ele><time>2008-11-14T13:53:34Z</time></trkpt><trkpt lat="39.149920" lon="-6.810100"><ele>332.2</ele><time>2008-11-14T13:53:48Z</time></trkpt><trkpt lat="39.149950" lon="-6.809410"><ele>333.1</ele><time>2008-11-14T13:54:00Z</time></trkpt><trkpt lat="39.149950" lon="-6.809030"><ele>333.8</ele><time>2008-11-14T13:54:07Z</time></trkpt><trkpt lat="39.149960" lon="-6.808910"><ele>334.1</ele><time>2008-11-14T13:54:09Z</time></trkpt><trkpt lat="39.149930" lon="-6.808380"><ele>334.7</ele><time>2008-11-14T13:54:18Z</time></trkpt><trkpt lat="39.149920" lon="-6.808170"><ele>334.7</ele><time>2008-11-14T13:54:22Z</time></trkpt><trkpt lat="39.149890" lon="-6.808010"><ele>335.3</ele><time>2008-11-14T13:54:25Z</time></trkpt><trkpt lat="39.149850" lon="-6.807330"><ele>335.6</ele><time>2008-11-14T13:54:37Z</time></trkpt><trkpt lat="39.149840" lon="-6.807100"><ele>334.7</ele><time>2008-11-14T13:54:41Z</time></trkpt><trkpt lat="39.149810" lon="-6.806690"><ele>334.7</ele><time>2008-11-14T13:54:48Z</time></trkpt><trkpt lat="39.149770" lon="-6.806380"><ele>335.6</ele><time>2008-11-14T13:54:53Z</time></trkpt><trkpt lat="39.149780" lon="-6.806210"><ele>335.3</ele><time>2008-11-14T13:54:56Z</time></trkpt><trkpt lat="39.149770" lon="-6.805790"><ele>334.7</ele><time>2008-11-14T13:55:03Z</time></trkpt><trkpt lat="39.149750" lon="-6.805580"><ele>334.1</ele><time>2008-11-14T13:55:08Z</time></trkpt><trkpt lat="39.149730" lon="-6.805480"><ele>334.1</ele><time>2008-11-14T13:55:20Z</time></trkpt><trkpt lat="39.149730" lon="-6.805350"><ele>333.8</ele><time>2008-11-14T13:57:18Z</time></trkpt><trkpt lat="39.149680" lon="-6.805250"><ele>334.7</ele><time>2008-11-14T13:57:23Z</time></trkpt><trkpt lat="39.149700" lon="-6.805100"><ele>334.1</ele><time>2008-11-14T13:57:26Z</time></trkpt><trkpt lat="39.149680" lon="-6.804830"><ele>335.3</ele><time>2008-11-14T13:57:31Z</time></trkpt><trkpt lat="39.149630" lon="-6.804740"><ele>335.6</ele><time>2008-11-14T13:57:34Z</time></trkpt><trkpt lat="39.149630" lon="-6.804450"><ele>337.4</ele><time>2008-11-14T13:57:43Z</time></trkpt><trkpt lat="39.149690" lon="-6.804460"><ele>338.0</ele><time>2008-11-14T13:57:53Z</time></trkpt><trkpt lat="39.149720" lon="-6.804490"><ele>337.4</ele><time>2008-11-14T13:57:57Z</time></trkpt><trkpt lat="39.149670" lon="-6.804730"><ele>336.5</ele><time>2008-11-14T13:58:11Z</time></trkpt><trkpt lat="39.149640" lon="-6.804640"><ele>336.2</ele><time>2008-11-14T13:58:16Z</time></trkpt><trkpt lat="39.149640" lon="-6.804400"><ele>335.6</ele><time>2008-11-14T13:58:21Z</time></trkpt><trkpt lat="39.149660" lon="-6.804070"><ele>335.6</ele><time>2008-11-14T13:58:26Z</time></trkpt><trkpt lat="39.149700" lon="-6.803170"><ele>333.8</ele><time>2008-11-14T13:58:40Z</time></trkpt><trkpt lat="39.149670" lon="-6.803020"><ele>333.1</ele><time>2008-11-14T13:58:47Z</time></trkpt><trkpt lat="39.149660" lon="-6.802990"><ele>331.9</ele><time>2008-11-14T13:59:05Z</time></trkpt><trkpt lat="39.149620" lon="-6.803010"><ele>333.1</ele><time>2008-11-14T13:59:18Z</time></trkpt><trkpt lat="39.149620" lon="-6.802990"><ele>334.7</ele><time>2008-11-14T13:59:33Z</time></trkpt><trkpt lat="39.149400" lon="-6.802840"><ele>335.3</ele><time>2008-11-14T13:59:45Z</time></trkpt><trkpt lat="39.149180" lon="-6.802570"><ele>335.3</ele><time>2008-11-14T13:59:54Z</time></trkpt><trkpt lat="39.149080" lon="-6.802000"><ele>334.7</ele><time>2008-11-14T14:00:06Z</time></trkpt><trkpt lat="39.148960" lon="-6.801420"><ele>334.7</ele><time>2008-11-14T14:00:18Z</time></trkpt><trkpt lat="39.148800" lon="-6.800420"><ele>335.6</ele><time>2008-11-14T14:00:32Z</time></trkpt><trkpt lat="39.148790" lon="-6.799990"><ele>336.2</ele><time>2008-11-14T14:00:37Z</time></trkpt><trkpt lat="39.148690" lon="-6.799590"><ele>337.4</ele><time>2008-11-14T14:00:42Z</time></trkpt><trkpt lat="39.148660" lon="-6.799400"><ele>337.4</ele><time>2008-11-14T14:00:44Z</time></trkpt><trkpt lat="39.148540" lon="-6.799000"><ele>337.4</ele><time>2008-11-14T14:00:50Z</time></trkpt><trkpt lat="39.148470" lon="-6.798750"><ele>338.0</ele><time>2008-11-14T14:00:54Z</time></trkpt><trkpt lat="39.148380" lon="-6.798490"><ele>338.6</ele><time>2008-11-14T14:00:58Z</time></trkpt><trkpt lat="39.148020" lon="-6.797650"><ele>338.0</ele><time>2008-11-14T14:01:11Z</time></trkpt><trkpt lat="39.147890" lon="-6.797200"><ele>337.1</ele><time>2008-11-14T14:01:18Z</time></trkpt><trkpt lat="39.147810" lon="-6.796880"><ele>336.5</ele><time>2008-11-14T14:01:22Z</time></trkpt><trkpt lat="39.147680" lon="-6.796200"><ele>336.2</ele><time>2008-11-14T14:01:30Z</time></trkpt><trkpt lat="39.147650" lon="-6.795930"><ele>336.2</ele><time>2008-11-14T14:01:35Z</time></trkpt><trkpt lat="39.147620" lon="-6.795840"><ele>336.2</ele><time>2008-11-14T14:01:38Z</time></trkpt><trkpt lat="39.147600" lon="-6.795800"><ele>336.2</ele><time>2008-11-14T14:01:48Z</time></trkpt><trkpt lat="39.147590" lon="-6.795790"><ele>336.2</ele><time>2008-11-14T14:01:50Z</time></trkpt><trkpt lat="39.147650" lon="-6.795570"><ele>333.1</ele><time>2008-11-14T14:01:57Z</time></trkpt><trkpt lat="39.147680" lon="-6.795460"><ele>332.2</ele><time>2008-11-14T14:01:59Z</time></trkpt><trkpt lat="39.147710" lon="-6.795230"><ele>331.3</ele><time>2008-11-14T14:02:02Z</time></trkpt><trkpt lat="39.147700" lon="-6.794970"><ele>330.7</ele><time>2008-11-14T14:02:05Z</time></trkpt><trkpt lat="39.147650" lon="-6.794630"><ele>329.8</ele><time>2008-11-14T14:02:09Z</time></trkpt><trkpt lat="39.147450" lon="-6.794120"><ele>328.9</ele><time>2008-11-14T14:02:15Z</time></trkpt><trkpt lat="39.147380" lon="-6.793950"><ele>328.6</ele><time>2008-11-14T14:02:17Z</time></trkpt><trkpt lat="39.147270" lon="-6.793480"><ele>327.4</ele><time>2008-11-14T14:02:22Z</time></trkpt><trkpt lat="39.146900" lon="-6.792520"><ele>327.1</ele><time>2008-11-14T14:02:34Z</time></trkpt><trkpt lat="39.146830" lon="-6.792230"><ele>327.4</ele><time>2008-11-14T14:02:37Z</time></trkpt><trkpt lat="39.146640" lon="-6.791760"><ele>327.4</ele><time>2008-11-14T14:02:43Z</time></trkpt><trkpt lat="39.146530" lon="-6.791430"><ele>327.4</ele><time>2008-11-14T14:02:47Z</time></trkpt><trkpt lat="39.146280" lon="-6.790450"><ele>329.5</ele><time>2008-11-14T14:02:58Z</time></trkpt><trkpt lat="39.146210" lon="-6.790170"><ele>330.7</ele><time>2008-11-14T14:03:01Z</time></trkpt><trkpt lat="39.146170" lon="-6.789990"><ele>331.3</ele><time>2008-11-14T14:03:03Z</time></trkpt><trkpt lat="39.146090" lon="-6.789520"><ele>331.3</ele><time>2008-11-14T14:03:08Z</time></trkpt><trkpt lat="39.146000" lon="-6.789260"><ele>331.3</ele><time>2008-11-14T14:03:11Z</time></trkpt><trkpt lat="39.145910" lon="-6.788990"><ele>331.3</ele><time>2008-11-14T14:03:15Z</time></trkpt><trkpt lat="39.145800" lon="-6.787950"><ele>329.5</ele><time>2008-11-14T14:03:26Z</time></trkpt><trkpt lat="39.145810" lon="-6.787460"><ele>328.6</ele><time>2008-11-14T14:03:31Z</time></trkpt><trkpt lat="39.145870" lon="-6.786910"><ele>327.1</ele><time>2008-11-14T14:03:37Z</time></trkpt><trkpt lat="39.145870" lon="-6.786250"><ele>323.7</ele><time>2008-11-14T14:03:44Z</time></trkpt><trkpt lat="39.145830" lon="-6.785760"><ele>322.2</ele><time>2008-11-14T14:03:49Z</time></trkpt><trkpt lat="39.145910" lon="-6.785390"><ele>322.8</ele><time>2008-11-14T14:03:53Z</time></trkpt><trkpt lat="39.145950" lon="-6.785120"><ele>323.1</ele><time>2008-11-14T14:03:56Z</time></trkpt><trkpt lat="39.146180" lon="-6.784350"><ele>322.2</ele><time>2008-11-14T14:04:05Z</time></trkpt><trkpt lat="39.146350" lon="-6.783940"><ele>321.3</ele><time>2008-11-14T14:04:10Z</time></trkpt><trkpt lat="39.146420" lon="-6.783780"><ele>320.6</ele><time>2008-11-14T14:04:12Z</time></trkpt><trkpt lat="39.146640" lon="-6.783120"><ele>319.4</ele><time>2008-11-14T14:04:20Z</time></trkpt><trkpt lat="39.146820" lon="-6.782760"><ele>317.9</ele><time>2008-11-14T14:04:24Z</time></trkpt><trkpt lat="39.147000" lon="-6.782430"><ele>316.1</ele><time>2008-11-14T14:04:28Z</time></trkpt><trkpt lat="39.147120" lon="-6.782320"><ele>315.5</ele><time>2008-11-14T14:04:30Z</time></trkpt><trkpt lat="39.147420" lon="-6.782260"><ele>313.6</ele><time>2008-11-14T14:04:35Z</time></trkpt><trkpt lat="39.147690" lon="-6.782070"><ele>312.1</ele><time>2008-11-14T14:04:39Z</time></trkpt><trkpt lat="39.148230" lon="-6.781150"><ele>306.9</ele><time>2008-11-14T14:04:49Z</time></trkpt><trkpt lat="39.148350" lon="-6.780690"><ele>304.8</ele><time>2008-11-14T14:04:53Z</time></trkpt><trkpt lat="39.148480" lon="-6.780390"><ele>304.5</ele><time>2008-11-14T14:04:56Z</time></trkpt><trkpt lat="39.148830" lon="-6.779820"><ele>302.4</ele><time>2008-11-14T14:05:02Z</time></trkpt><trkpt lat="39.149000" lon="-6.779400"><ele>301.1</ele><time>2008-11-14T14:05:06Z</time></trkpt><trkpt lat="39.149110" lon="-6.779060"><ele>299.9</ele><time>2008-11-14T14:05:09Z</time></trkpt><trkpt lat="39.149130" lon="-6.778520"><ele>299.6</ele><time>2008-11-14T14:05:14Z</time></trkpt><trkpt lat="39.149100" lon="-6.778320"><ele>299.0</ele><time>2008-11-14T14:05:16Z</time></trkpt><trkpt lat="39.149090" lon="-6.778110"><ele>298.1</ele><time>2008-11-14T14:05:18Z</time></trkpt><trkpt lat="39.148870" lon="-6.777380"><ele>297.8</ele><time>2008-11-14T14:05:26Z</time></trkpt><trkpt lat="39.148850" lon="-6.777090"><ele>296.6</ele><time>2008-11-14T14:05:29Z</time></trkpt><trkpt lat="39.148850" lon="-6.776610"><ele>296.3</ele><time>2008-11-14T14:05:34Z</time></trkpt><trkpt lat="39.148950" lon="-6.776410"><ele>294.7</ele><time>2008-11-14T14:05:40Z</time></trkpt><trkpt lat="39.148950" lon="-6.776400"><ele>293.8</ele><time>2008-11-14T14:05:59Z</time></trkpt><trkpt lat="39.148960" lon="-6.776310"><ele>293.8</ele><time>2008-11-14T14:06:03Z</time></trkpt><trkpt lat="39.148950" lon="-6.776220"><ele>294.4</ele><time>2008-11-14T14:06:05Z</time></trkpt><trkpt lat="39.148710" lon="-6.775720"><ele>294.7</ele><time>2008-11-14T14:06:12Z</time></trkpt><trkpt lat="39.148690" lon="-6.775310"><ele>293.8</ele><time>2008-11-14T14:06:17Z</time></trkpt><trkpt lat="39.148740" lon="-6.775190"><ele>292.9</ele><time>2008-11-14T14:06:19Z</time></trkpt><trkpt lat="39.148780" lon="-6.775110"><ele>292.3</ele><time>2008-11-14T14:06:23Z</time></trkpt><trkpt lat="39.148770" lon="-6.775130"><ele>292.0</ele><time>2008-11-14T14:06:34Z</time></trkpt><trkpt lat="39.148780" lon="-6.775120"><ele>292.0</ele><time>2008-11-14T14:06:51Z</time></trkpt><trkpt lat="39.148780" lon="-6.775100"><ele>292.0</ele><time>2008-11-14T14:06:53Z</time></trkpt><trkpt lat="39.148870" lon="-6.774930"><ele>289.9</ele><time>2008-11-14T14:07:00Z</time></trkpt><trkpt lat="39.148830" lon="-6.774670"><ele>289.9</ele><time>2008-11-14T14:07:10Z</time></trkpt><trkpt lat="39.148750" lon="-6.774440"><ele>289.9</ele><time>2008-11-14T14:07:16Z</time></trkpt><trkpt lat="39.148710" lon="-6.774350"><ele>289.9</ele><time>2008-11-14T14:07:18Z</time></trkpt><trkpt lat="39.148610" lon="-6.774130"><ele>290.5</ele><time>2008-11-14T14:07:22Z</time></trkpt><trkpt lat="39.148370" lon="-6.773740"><ele>291.1</ele><time>2008-11-14T14:07:29Z</time></trkpt><trkpt lat="39.148310" lon="-6.773540"><ele>289.6</ele><time>2008-11-14T14:07:38Z</time></trkpt><trkpt lat="39.148330" lon="-6.773610"><ele>287.1</ele><time>2008-11-14T14:28:59Z</time></trkpt><trkpt lat="39.148350" lon="-6.773670"><ele>287.1</ele><time>2008-11-14T14:29:03Z</time></trkpt><trkpt lat="39.148490" lon="-6.773930"><ele>287.4</ele><time>2008-11-14T14:29:14Z</time></trkpt><trkpt lat="39.148650" lon="-6.774220"><ele>287.1</ele><time>2008-11-14T14:29:26Z</time></trkpt><trkpt lat="39.148740" lon="-6.774410"><ele>287.1</ele><time>2008-11-14T14:29:30Z</time></trkpt><trkpt lat="39.148810" lon="-6.774580"><ele>286.5</ele><time>2008-11-14T14:29:33Z</time></trkpt><trkpt lat="39.148800" lon="-6.775090"><ele>287.1</ele><time>2008-11-14T14:29:41Z</time></trkpt><trkpt lat="39.148750" lon="-6.775200"><ele>287.4</ele><time>2008-11-14T14:29:43Z</time></trkpt><trkpt lat="39.148690" lon="-6.775320"><ele>287.4</ele><time>2008-11-14T14:29:45Z</time></trkpt><trkpt lat="39.148670" lon="-6.775580"><ele>288.6</ele><time>2008-11-14T14:29:49Z</time></trkpt><trkpt lat="39.148720" lon="-6.775810"><ele>289.0</ele><time>2008-11-14T14:29:53Z</time></trkpt><trkpt lat="39.148830" lon="-6.776030"><ele>289.6</ele><time>2008-11-14T14:29:57Z</time></trkpt><trkpt lat="39.148900" lon="-6.776520"><ele>291.4</ele><time>2008-11-14T14:30:08Z</time></trkpt><trkpt lat="39.148850" lon="-6.776910"><ele>294.4</ele><time>2008-11-14T14:30:18Z</time></trkpt><trkpt lat="39.148860" lon="-6.776970"><ele>294.7</ele><time>2008-11-14T14:30:19Z</time></trkpt><trkpt lat="39.148850" lon="-6.777130"><ele>295.4</ele><time>2008-11-14T14:30:22Z</time></trkpt><trkpt lat="39.148850" lon="-6.777250"><ele>295.7</ele><time>2008-11-14T14:30:24Z</time></trkpt><trkpt lat="39.148900" lon="-6.777460"><ele>296.3</ele><time>2008-11-14T14:30:28Z</time></trkpt><trkpt lat="39.148960" lon="-6.777580"><ele>295.7</ele><time>2008-11-14T14:30:30Z</time></trkpt><trkpt lat="39.149020" lon="-6.777750"><ele>295.7</ele><time>2008-11-14T14:30:33Z</time></trkpt><trkpt lat="39.149080" lon="-6.777990"><ele>294.7</ele><time>2008-11-14T14:30:37Z</time></trkpt><trkpt lat="39.149090" lon="-6.778220"><ele>295.4</ele><time>2008-11-14T14:30:41Z</time></trkpt><trkpt lat="39.149120" lon="-6.778450"><ele>295.4</ele><time>2008-11-14T14:30:45Z</time></trkpt><trkpt lat="39.149130" lon="-6.778670"><ele>295.7</ele><time>2008-11-14T14:30:49Z</time></trkpt><trkpt lat="39.149150" lon="-6.778790"><ele>295.7</ele><time>2008-11-14T14:30:51Z</time></trkpt><trkpt lat="39.149120" lon="-6.779060"><ele>295.7</ele><time>2008-11-14T14:30:56Z</time></trkpt><trkpt lat="39.148930" lon="-6.779640"><ele>296.6</ele><time>2008-11-14T14:31:08Z</time></trkpt><trkpt lat="39.148690" lon="-6.780000"><ele>298.1</ele><time>2008-11-14T14:31:19Z</time></trkpt><trkpt lat="39.148440" lon="-6.780450"><ele>303.6</ele><time>2008-11-14T14:31:30Z</time></trkpt><trkpt lat="39.148280" lon="-6.780930"><ele>307.2</ele><time>2008-11-14T14:31:41Z</time></trkpt><trkpt lat="39.148100" lon="-6.781390"><ele>310.3</ele><time>2008-11-14T14:31:52Z</time></trkpt><trkpt lat="39.147980" lon="-6.781650"><ele>311.5</ele><time>2008-11-14T14:31:58Z</time></trkpt><trkpt lat="39.147700" lon="-6.782070"><ele>314.6</ele><time>2008-11-14T14:32:11Z</time></trkpt><trkpt lat="39.147390" lon="-6.782270"><ele>315.5</ele><time>2008-11-14T14:32:21Z</time></trkpt><trkpt lat="39.147050" lon="-6.782380"><ele>316.4</ele><time>2008-11-14T14:32:31Z</time></trkpt><trkpt lat="39.146910" lon="-6.782560"><ele>317.3</ele><time>2008-11-14T14:32:41Z</time></trkpt><trkpt lat="39.146880" lon="-6.782640"><ele>317.9</ele><time>2008-11-14T14:32:45Z</time></trkpt><trkpt lat="39.146730" lon="-6.782950"><ele>318.2</ele><time>2008-11-14T14:32:58Z</time></trkpt><trkpt lat="39.146510" lon="-6.783480"><ele>321.3</ele><time>2008-11-14T14:33:13Z</time></trkpt><trkpt lat="39.146340" lon="-6.783930"><ele>322.8</ele><time>2008-11-14T14:33:24Z</time></trkpt><trkpt lat="39.146170" lon="-6.784400"><ele>323.7</ele><time>2008-11-14T14:33:35Z</time></trkpt><trkpt lat="39.146100" lon="-6.784640"><ele>324.0</ele><time>2008-11-14T14:33:39Z</time></trkpt><trkpt lat="39.145990" lon="-6.785050"><ele>324.0</ele><time>2008-11-14T14:33:46Z</time></trkpt><trkpt lat="39.145930" lon="-6.785680"><ele>323.7</ele><time>2008-11-14T14:33:56Z</time></trkpt><trkpt lat="39.145950" lon="-6.786120"><ele>323.7</ele><time>2008-11-14T14:34:02Z</time></trkpt><trkpt lat="39.145950" lon="-6.786820"><ele>322.8</ele><time>2008-11-14T14:34:11Z</time></trkpt><trkpt lat="39.145920" lon="-6.787070"><ele>323.1</ele><time>2008-11-14T14:34:14Z</time></trkpt><trkpt lat="39.145930" lon="-6.788810"><ele>324.9</ele><time>2008-11-14T14:34:37Z</time></trkpt><trkpt lat="39.146080" lon="-6.789420"><ele>324.6</ele><time>2008-11-14T14:34:46Z</time></trkpt><trkpt lat="39.146170" lon="-6.789760"><ele>324.9</ele><time>2008-11-14T14:34:51Z</time></trkpt><trkpt lat="39.146340" lon="-6.790660"><ele>325.5</ele><time>2008-11-14T14:35:04Z</time></trkpt><trkpt lat="39.146630" lon="-6.791720"><ele>326.1</ele><time>2008-11-14T14:35:19Z</time></trkpt><trkpt lat="39.147010" lon="-6.792850"><ele>324.6</ele><time>2008-11-14T14:35:36Z</time></trkpt><trkpt lat="39.147230" lon="-6.793420"><ele>324.9</ele><time>2008-11-14T14:35:45Z</time></trkpt><trkpt lat="39.147480" lon="-6.794270"><ele>327.1</ele><time>2008-11-14T14:35:58Z</time></trkpt><trkpt lat="39.147610" lon="-6.794520"><ele>327.4</ele><time>2008-11-14T14:36:03Z</time></trkpt><trkpt lat="39.147690" lon="-6.794930"><ele>327.4</ele><time>2008-11-14T14:36:10Z</time></trkpt><trkpt lat="39.147700" lon="-6.795200"><ele>328.0</ele><time>2008-11-14T14:36:15Z</time></trkpt><trkpt lat="39.147640" lon="-6.795800"><ele>329.8</ele><time>2008-11-14T14:36:30Z</time></trkpt><trkpt lat="39.147630" lon="-6.795820"><ele>329.8</ele><time>2008-11-14T14:36:48Z</time></trkpt><trkpt lat="39.147680" lon="-6.796030"><ele>328.6</ele><time>2008-11-14T14:36:54Z</time></trkpt><trkpt lat="39.147690" lon="-6.796140"><ele>328.0</ele><time>2008-11-14T14:36:56Z</time></trkpt><trkpt lat="39.147710" lon="-6.796260"><ele>327.4</ele><time>2008-11-14T14:36:58Z</time></trkpt><trkpt lat="39.147920" lon="-6.797290"><ele>327.1</ele><time>2008-11-14T14:37:13Z</time></trkpt><trkpt lat="39.148230" lon="-6.798150"><ele>328.6</ele><time>2008-11-14T14:37:27Z</time></trkpt><trkpt lat="39.148280" lon="-6.798270"><ele>328.6</ele><time>2008-11-14T14:37:29Z</time></trkpt><trkpt lat="39.148620" lon="-6.799240"><ele>327.1</ele><time>2008-11-14T14:37:43Z</time></trkpt><trkpt lat="39.148660" lon="-6.799390"><ele>326.4</ele><time>2008-11-14T14:37:45Z</time></trkpt><trkpt lat="39.148680" lon="-6.799540"><ele>326.1</ele><time>2008-11-14T14:37:47Z</time></trkpt><trkpt lat="39.148730" lon="-6.799770"><ele>324.9</ele><time>2008-11-14T14:37:50Z</time></trkpt><trkpt lat="39.148760" lon="-6.800320"><ele>324.0</ele><time>2008-11-14T14:37:58Z</time></trkpt><trkpt lat="39.148880" lon="-6.801180"><ele>322.2</ele><time>2008-11-14T14:38:11Z</time></trkpt><trkpt lat="39.148900" lon="-6.801320"><ele>321.6</ele><time>2008-11-14T14:38:13Z</time></trkpt><trkpt lat="39.148910" lon="-6.801460"><ele>321.3</ele><time>2008-11-14T14:38:15Z</time></trkpt><trkpt lat="39.148980" lon="-6.801740"><ele>320.3</ele><time>2008-11-14T14:38:19Z</time></trkpt><trkpt lat="39.149030" lon="-6.802030"><ele>320.3</ele><time>2008-11-14T14:38:23Z</time></trkpt><trkpt lat="39.149290" lon="-6.802700"><ele>319.7</ele><time>2008-11-14T14:38:34Z</time></trkpt><trkpt lat="39.149650" lon="-6.803230"><ele>319.7</ele><time>2008-11-14T14:38:44Z</time></trkpt><trkpt lat="39.149620" lon="-6.804250"><ele>324.0</ele><time>2008-11-14T14:38:58Z</time></trkpt><trkpt lat="39.149660" lon="-6.805230"><ele>326.4</ele><time>2008-11-14T14:39:15Z</time></trkpt><trkpt lat="39.149700" lon="-6.805300"><ele>327.1</ele><time>2008-11-14T14:39:17Z</time></trkpt><trkpt lat="39.149740" lon="-6.805430"><ele>328.6</ele><time>2008-11-14T14:39:23Z</time></trkpt><trkpt lat="39.149740" lon="-6.805470"><ele>331.3</ele><time>2008-11-14T14:39:32Z</time></trkpt><trkpt lat="39.149800" lon="-6.805520"><ele>331.3</ele><time>2008-11-14T14:39:36Z</time></trkpt><trkpt lat="39.149830" lon="-6.805730"><ele>331.9</ele><time>2008-11-14T14:39:42Z</time></trkpt><trkpt lat="39.149820" lon="-6.806280"><ele>333.8</ele><time>2008-11-14T14:39:51Z</time></trkpt><trkpt lat="39.149800" lon="-6.806570"><ele>334.1</ele><time>2008-11-14T14:39:55Z</time></trkpt><trkpt lat="39.149800" lon="-6.806800"><ele>334.7</ele><time>2008-11-14T14:39:58Z</time></trkpt><trkpt lat="39.149870" lon="-6.807410"><ele>334.1</ele><time>2008-11-14T14:40:06Z</time></trkpt><trkpt lat="39.149910" lon="-6.807630"><ele>334.1</ele><time>2008-11-14T14:40:09Z</time></trkpt><trkpt lat="39.149920" lon="-6.807930"><ele>333.1</ele><time>2008-11-14T14:40:13Z</time></trkpt><trkpt lat="39.149940" lon="-6.808160"><ele>332.8</ele><time>2008-11-14T14:40:16Z</time></trkpt><trkpt lat="39.149950" lon="-6.808810"><ele>332.2</ele><time>2008-11-14T14:40:24Z</time></trkpt><trkpt lat="39.149960" lon="-6.809360"><ele>332.2</ele><time>2008-11-14T14:40:31Z</time></trkpt><trkpt lat="39.149980" lon="-6.809610"><ele>332.2</ele><time>2008-11-14T14:40:34Z</time></trkpt><trkpt lat="39.149950" lon="-6.809950"><ele>331.9</ele><time>2008-11-14T14:40:38Z</time></trkpt><trkpt lat="39.149940" lon="-6.810300"><ele>331.3</ele><time>2008-11-14T14:40:42Z</time></trkpt><trkpt lat="39.149960" lon="-6.810570"><ele>330.7</ele><time>2008-11-14T14:40:45Z</time></trkpt><trkpt lat="39.149990" lon="-6.810820"><ele>330.4</ele><time>2008-11-14T14:40:48Z</time></trkpt><trkpt lat="39.150050" lon="-6.811050"><ele>330.4</ele><time>2008-11-14T14:40:51Z</time></trkpt><trkpt lat="39.150120" lon="-6.811710"><ele>328.6</ele><time>2008-11-14T14:40:59Z</time></trkpt><trkpt lat="39.150180" lon="-6.811860"><ele>328.6</ele><time>2008-11-14T14:41:01Z</time></trkpt><trkpt lat="39.150300" lon="-6.812130"><ele>328.6</ele><time>2008-11-14T14:41:05Z</time></trkpt><trkpt lat="39.150340" lon="-6.812260"><ele>328.6</ele><time>2008-11-14T14:41:07Z</time></trkpt><trkpt lat="39.150260" lon="-6.812510"><ele>329.5</ele><time>2008-11-14T14:41:11Z</time></trkpt><trkpt lat="39.150190" lon="-6.812640"><ele>329.5</ele><time>2008-11-14T14:41:13Z</time></trkpt><trkpt lat="39.149840" lon="-6.813090"><ele>328.6</ele><time>2008-11-14T14:41:20Z</time></trkpt><trkpt lat="39.149710" lon="-6.813180"><ele>327.4</ele><time>2008-11-14T14:41:22Z</time></trkpt><trkpt lat="39.149530" lon="-6.813450"><ele>326.1</ele><time>2008-11-14T14:41:26Z</time></trkpt><trkpt lat="39.149470" lon="-6.813630"><ele>325.5</ele><time>2008-11-14T14:41:28Z</time></trkpt><trkpt lat="39.149080" lon="-6.814390"><ele>322.8</ele><time>2008-11-14T14:41:37Z</time></trkpt><trkpt lat="39.148520" lon="-6.815310"><ele>322.8</ele><time>2008-11-14T14:41:48Z</time></trkpt><trkpt lat="39.148400" lon="-6.815570"><ele>323.1</ele><time>2008-11-14T14:41:52Z</time></trkpt><trkpt lat="39.147950" lon="-6.816290"><ele>322.8</ele><time>2008-11-14T14:42:01Z</time></trkpt><trkpt lat="39.147820" lon="-6.816790"><ele>322.2</ele><time>2008-11-14T14:42:07Z</time></trkpt><trkpt lat="39.147560" lon="-6.817260"><ele>320.3</ele><time>2008-11-14T14:42:13Z</time></trkpt><trkpt lat="39.147470" lon="-6.817510"><ele>319.7</ele><time>2008-11-14T14:42:16Z</time></trkpt><trkpt lat="39.147510" lon="-6.818000"><ele>319.7</ele><time>2008-11-14T14:42:21Z</time></trkpt><trkpt lat="39.147530" lon="-6.818270"><ele>321.3</ele><time>2008-11-14T14:42:24Z</time></trkpt><trkpt lat="39.147510" lon="-6.818440"><ele>321.6</ele><time>2008-11-14T14:42:26Z</time></trkpt><trkpt lat="39.147310" lon="-6.818830"><ele>318.8</ele><time>2008-11-14T14:42:31Z</time></trkpt><trkpt lat="39.147110" lon="-6.819010"><ele>316.1</ele><time>2008-11-14T14:42:38Z</time></trkpt><trkpt lat="39.147100" lon="-6.819010"><ele>315.5</ele><time>2008-11-14T14:42:41Z</time></trkpt><trkpt lat="39.147090" lon="-6.819030"><ele>314.9</ele><time>2008-11-14T14:42:52Z</time></trkpt><trkpt lat="39.147090" lon="-6.819050"><ele>314.9</ele><time>2008-11-14T14:42:57Z</time></trkpt><trkpt lat="39.147050" lon="-6.819060"><ele>314.9</ele><time>2008-11-14T14:43:00Z</time></trkpt><trkpt lat="39.146950" lon="-6.819210"><ele>314.9</ele><time>2008-11-14T14:43:05Z</time></trkpt><trkpt lat="39.146950" lon="-6.819310"><ele>315.5</ele><time>2008-11-14T14:43:07Z</time></trkpt><trkpt lat="39.146870" lon="-6.819700"><ele>317.0</ele><time>2008-11-14T14:43:14Z</time></trkpt><trkpt lat="39.146830" lon="-6.820130"><ele>317.0</ele><time>2008-11-14T14:43:20Z</time></trkpt><trkpt lat="39.146900" lon="-6.821010"><ele>317.0</ele><time>2008-11-14T14:43:31Z</time></trkpt><trkpt lat="39.147050" lon="-6.821460"><ele>314.9</ele><time>2008-11-14T14:43:36Z</time></trkpt><trkpt lat="39.147090" lon="-6.821650"><ele>314.6</ele><time>2008-11-14T14:43:38Z</time></trkpt><trkpt lat="39.147180" lon="-6.822430"><ele>313.9</ele><time>2008-11-14T14:43:47Z</time></trkpt><trkpt lat="39.147150" lon="-6.822720"><ele>313.6</ele><time>2008-11-14T14:43:51Z</time></trkpt><trkpt lat="39.147100" lon="-6.823080"><ele>313.9</ele><time>2008-11-14T14:43:56Z</time></trkpt><trkpt lat="39.147040" lon="-6.823380"><ele>314.6</ele><time>2008-11-14T14:44:00Z</time></trkpt><trkpt lat="39.146990" lon="-6.823670"><ele>314.9</ele><time>2008-11-14T14:44:04Z</time></trkpt><trkpt lat="39.146930" lon="-6.824190"><ele>317.3</ele><time>2008-11-14T14:44:11Z</time></trkpt><trkpt lat="39.146770" lon="-6.824630"><ele>319.4</ele><time>2008-11-14T14:44:18Z</time></trkpt><trkpt lat="39.146710" lon="-6.824730"><ele>319.7</ele><time>2008-11-14T14:44:20Z</time></trkpt><trkpt lat="39.146560" lon="-6.824970"><ele>319.4</ele><time>2008-11-14T14:44:24Z</time></trkpt><trkpt lat="39.146420" lon="-6.825120"><ele>319.4</ele><time>2008-11-14T14:44:27Z</time></trkpt><trkpt lat="39.146330" lon="-6.825200"><ele>318.8</ele><time>2008-11-14T14:44:29Z</time></trkpt><trkpt lat="39.146230" lon="-6.825270"><ele>318.8</ele><time>2008-11-14T14:44:31Z</time></trkpt><trkpt lat="39.145860" lon="-6.825530"><ele>320.6</ele><time>2008-11-14T14:44:43Z</time></trkpt><trkpt lat="39.145500" lon="-6.825740"><ele>321.3</ele><time>2008-11-14T14:44:56Z</time></trkpt><trkpt lat="39.145290" lon="-6.825990"><ele>324.9</ele><time>2008-11-14T14:45:06Z</time></trkpt><trkpt lat="39.145230" lon="-6.826270"><ele>328.9</ele><time>2008-11-14T14:45:16Z</time></trkpt><trkpt lat="39.145120" lon="-6.826680"><ele>332.8</ele><time>2008-11-14T14:45:27Z</time></trkpt><trkpt lat="39.145060" lon="-6.826810"><ele>333.1</ele><time>2008-11-14T14:45:30Z</time></trkpt><trkpt lat="39.144970" lon="-6.827010"><ele>334.7</ele><time>2008-11-14T14:45:35Z</time></trkpt><trkpt lat="39.144980" lon="-6.827160"><ele>335.3</ele><time>2008-11-14T14:45:39Z</time></trkpt><trkpt lat="39.144930" lon="-6.827420"><ele>334.7</ele><time>2008-11-14T14:45:44Z</time></trkpt><trkpt lat="39.144900" lon="-6.827560"><ele>334.1</ele><time>2008-11-14T14:45:46Z</time></trkpt><trkpt lat="39.144620" lon="-6.827980"><ele>331.3</ele><time>2008-11-14T14:45:54Z</time></trkpt><trkpt lat="39.144590" lon="-6.828030"><ele>330.7</ele><time>2008-11-14T14:46:00Z</time></trkpt><trkpt lat="39.144580" lon="-6.828080"><ele>328.9</ele><time>2008-11-14T14:46:15Z</time></trkpt><trkpt lat="39.144500" lon="-6.828230"><ele>329.8</ele><time>2008-11-14T14:46:21Z</time></trkpt><trkpt lat="39.144400" lon="-6.828500"><ele>330.7</ele><time>2008-11-14T14:46:26Z</time></trkpt><trkpt lat="39.144330" lon="-6.828670"><ele>331.9</ele><time>2008-11-14T14:46:29Z</time></trkpt><trkpt lat="39.144270" lon="-6.828920"><ele>332.8</ele><time>2008-11-14T14:46:33Z</time></trkpt><trkpt lat="39.144220" lon="-6.829140"><ele>332.8</ele><time>2008-11-14T14:46:36Z</time></trkpt><trkpt lat="39.144190" lon="-6.829370"><ele>333.1</ele><time>2008-11-14T14:46:39Z</time></trkpt><trkpt lat="39.144190" lon="-6.829590"><ele>333.1</ele><time>2008-11-14T14:46:42Z</time></trkpt><trkpt lat="39.144130" lon="-6.829970"><ele>333.8</ele><time>2008-11-14T14:46:49Z</time></trkpt><trkpt lat="39.144100" lon="-6.830230"><ele>333.8</ele><time>2008-11-14T14:46:54Z</time></trkpt><trkpt lat="39.144100" lon="-6.830350"><ele>333.8</ele><time>2008-11-14T14:46:56Z</time></trkpt><trkpt lat="39.144110" lon="-6.830500"><ele>333.8</ele><time>2008-11-14T14:46:58Z</time></trkpt><trkpt lat="39.144190" lon="-6.831270"><ele>330.7</ele><time>2008-11-14T14:47:12Z</time></trkpt><trkpt lat="39.144200" lon="-6.831410"><ele>330.4</ele><time>2008-11-14T14:47:15Z</time></trkpt><trkpt lat="39.144210" lon="-6.831530"><ele>329.8</ele><time>2008-11-14T14:47:17Z</time></trkpt><trkpt lat="39.144000" lon="-6.831950"><ele>327.4</ele><time>2008-11-14T14:47:25Z</time></trkpt><trkpt lat="39.143790" lon="-6.832380"><ele>324.9</ele><time>2008-11-14T14:47:32Z</time></trkpt><trkpt lat="39.143760" lon="-6.832730"><ele>322.8</ele><time>2008-11-14T14:47:37Z</time></trkpt><trkpt lat="39.143740" lon="-6.833120"><ele>320.6</ele><time>2008-11-14T14:47:42Z</time></trkpt><trkpt lat="39.143730" lon="-6.833360"><ele>320.3</ele><time>2008-11-14T14:47:45Z</time></trkpt><trkpt lat="39.143650" lon="-6.833770"><ele>319.4</ele><time>2008-11-14T14:47:50Z</time></trkpt><trkpt lat="39.143560" lon="-6.834000"><ele>318.8</ele><time>2008-11-14T14:47:53Z</time></trkpt><trkpt lat="39.143450" lon="-6.834300"><ele>317.9</ele><time>2008-11-14T14:47:57Z</time></trkpt><trkpt lat="39.143390" lon="-6.834550"><ele>317.0</ele><time>2008-11-14T14:48:00Z</time></trkpt><trkpt lat="39.143340" lon="-6.834710"><ele>316.4</ele><time>2008-11-14T14:48:02Z</time></trkpt><trkpt lat="39.143260" lon="-6.835200"><ele>313.6</ele><time>2008-11-14T14:48:08Z</time></trkpt><trkpt lat="39.143290" lon="-6.835550"><ele>310.6</ele><time>2008-11-14T14:48:12Z</time></trkpt><trkpt lat="39.143250" lon="-6.836090"><ele>306.3</ele><time>2008-11-14T14:48:19Z</time></trkpt><trkpt lat="39.143110" lon="-6.836170"><ele>304.8</ele><time>2008-11-14T14:48:21Z</time></trkpt><trkpt lat="39.142930" lon="-6.836270"><ele>303.0</ele><time>2008-11-14T14:48:23Z</time></trkpt><trkpt lat="39.142190" lon="-6.836620"><ele>296.3</ele><time>2008-11-14T14:48:30Z</time></trkpt><trkpt lat="39.141790" lon="-6.836910"><ele>292.3</ele><time>2008-11-14T14:48:34Z</time></trkpt><trkpt lat="39.141620" lon="-6.837080"><ele>291.1</ele><time>2008-11-14T14:48:36Z</time></trkpt><trkpt lat="39.140750" lon="-6.837740"><ele>282.2</ele><time>2008-11-14T14:48:46Z</time></trkpt><trkpt lat="39.140440" lon="-6.838390"><ele>278.6</ele><time>2008-11-14T14:48:53Z</time></trkpt><trkpt lat="39.140410" lon="-6.838720"><ele>278.0</ele><time>2008-11-14T14:48:56Z</time></trkpt><trkpt lat="39.140360" lon="-6.839050"><ele>278.0</ele><time>2008-11-14T14:48:59Z</time></trkpt><trkpt lat="39.139940" lon="-6.839630"><ele>275.5</ele><time>2008-11-14T14:49:06Z</time></trkpt><trkpt lat="39.139750" lon="-6.839870"><ele>273.7</ele><time>2008-11-14T14:49:09Z</time></trkpt><trkpt lat="39.139620" lon="-6.840230"><ele>271.6</ele><time>2008-11-14T14:49:13Z</time></trkpt><trkpt lat="39.139540" lon="-6.840600"><ele>270.4</ele><time>2008-11-14T14:49:17Z</time></trkpt><trkpt lat="39.139420" lon="-6.840890"><ele>268.2</ele><time>2008-11-14T14:49:20Z</time></trkpt><trkpt lat="39.139160" lon="-6.841160"><ele>267.0</ele><time>2008-11-14T14:49:24Z</time></trkpt><trkpt lat="39.138780" lon="-6.841320"><ele>265.5</ele><time>2008-11-14T14:49:29Z</time></trkpt><trkpt lat="39.138230" lon="-6.841660"><ele>263.7</ele><time>2008-11-14T14:49:36Z</time></trkpt><trkpt lat="39.137510" lon="-6.842320"><ele>262.1</ele><time>2008-11-14T14:49:47Z</time></trkpt><trkpt lat="39.137240" lon="-6.842510"><ele>261.2</ele><time>2008-11-14T14:50:50Z</time></trkpt><trkpt lat="39.136990" lon="-6.842680"><ele>260.3</ele><time>2008-11-14T14:55:53Z</time></trkpt><trkpt lat="39.136300" lon="-6.843400"><ele>256.9</ele><time>2008-11-14T15:05:02Z</time></trkpt><trkpt lat="39.135560" lon="-6.844020"><ele>253.9</ele><time>2008-11-14T15:11:12Z</time></trkpt><trkpt lat="39.135180" lon="-6.844310"><ele>252.4</ele><time>2008-11-14T15:15:16Z</time></trkpt><trkpt lat="39.135050" lon="-6.844450"><ele>252.1</ele><time>2008-11-14T15:18:19Z</time></trkpt><trkpt lat="39.134830" lon="-6.844590"><ele>249.9</ele><time>2008-11-14T15:20:24Z</time></trkpt><trkpt lat="39.134810" lon="-6.844580"><ele>249.9</ele><time>2008-11-14T15:25:38Z</time></trkpt><trkpt lat="39.134810" lon="-6.844600"><ele>252.4</ele><time>2008-11-14T15:31:56Z</time></trkpt><trkpt lat="39.134790" lon="-6.844610"><ele>253.6</ele><time>2008-11-14T15:35:18Z</time></trkpt><trkpt lat="39.134810" lon="-6.844600"><ele>252.4</ele><time>2008-11-14T15:41:52Z</time></trkpt><trkpt lat="39.134760" lon="-6.844600"><ele>252.4</ele><time>2008-11-14T15:51:57Z</time></trkpt></trkseg></trk></gpx>